KPUB/PUB METAR and TAF weather

Enter ICAO airport designator
Station Type Date Time Source
KPUB METAR 2018/12/19 03:53 UTC NOAA

KPUB 190353Z 01003KT 10SM CLR M02/M09 A2988 RMK AO2 SLP124 T10171094


Station Type Date Time Source
KPUB Decoded METAR 2018/12/19 03:53 UTC NOAA

PUEBLO MEMORIAL AIRPORT, CO, United States (KPUB) 38-17N 104-30W 1420M
Dec 18, 2018 - 10:53 PM EST / 2018.12.19 0353 UTC
Wind: from the N (010 degrees) at 3 MPH (3 KT):0
Visibility: 10 mile(s):0
Sky conditions: clear
Temperature: 28.9 F (-1.7 C)
Dew Point: 15.1 F (-9.4 C)
Relative Humidity: 55%
Pressure (altimeter): 29.88 in. Hg (1011 hPa)
ob: KPUB 190353Z 01003KT 10SM CLR M02/M09 A2988 RMK AO2 SLP124 T10171094
cycle: 4

Station Type Date Time Source
KPUB TAF 2018/12/18 18:33 UTC NOAA

TAF KPUB 181730Z 1818/1918 28006KT P6SM SCT080 BKN120
FM181900 15007KT P6SM SCT080 SCT200
FM190200 VRB06KT P6SM BKN200
FM191000 33009KT P6SM BKN200
FM191600 33015G30KT P6SM SCT080 BKN200


Example: see airport list